sensor_id;sensor_type;location;lat;lon;timestamp;pressure;altitude;pressure_sealevel;temperature;humidity
75585;BME280;64162;53.508;10.476;2023-04-03T00:00:31;102882.75;;;-0.24;nan
75585;BME280;64162;53.508;10.476;2023-04-03T00:02:57;102875.53;;;-0.31;nan
75585;BME280;64162;53.508;10.476;2023-04-03T00:05:24;102880.13;;;-0.35;nan
75585;BME280;64162;53.508;10.476;2023-04-03T00:07:51;102886.50;;;-0.28;nan
75585;BME280;64162;53.508;10.476;2023-04-03T00:10:18;102890.38;;;-0.33;nan
75585;BME280;64162;53.508;10.476;2023-04-03T00:12:44;102891.84;;;-0.29;nan
75585;BME280;64162;53.508;10.476;2023-04-03T00:15:11;102892.75;;;-0.30;nan
75585;BME280;64162;53.508;10.476;2023-04-03T00:17:38;102889.91;;;-0.38;nan
75585;BME280;64162;53.508;10.476;2023-04-03T00:20:05;102882.47;;;-0.43;nan
75585;BME280;64162;53.508;10.476;2023-04-03T00:22:32;102883.31;;;-0.42;nan
75585;BME280;64162;53.508;10.476;2023-04-03T00:24:58;102886.72;;;-0.42;nan
75585;BME280;64162;53.508;10.476;2023-04-03T00:27:25;102888.59;;;-0.55;nan
75585;BME280;64162;53.508;10.476;2023-04-03T00:29:51;102885.78;;;-0.41;nan
75585;BME280;64162;53.508;10.476;2023-04-03T00:32:18;102883.19;;;-0.41;nan
75585;BME280;64162;53.508;10.476;2023-04-03T00:34:45;102888.59;;;-0.55;nan
75585;BME280;64162;53.508;10.476;2023-04-03T00:37:12;102881.84;;;-0.57;nan
75585;BME280;64162;53.508;10.476;2023-04-03T00:39:38;102897.31;;;-0.56;nan
75585;BME280;64162;53.508;10.476;2023-04-03T00:42:06;102895.97;;;-0.62;nan
75585;BME280;64162;53.508;10.476;2023-04-03T00:47:00;102904.03;;;-0.65;nan
75585;BME280;64162;53.508;10.476;2023-04-03T00:49:27;102903.91;;;-0.63;nan
75585;BME280;64162;53.508;10.476;2023-04-03T00:51:55;102904.03;;;-0.65;nan
75585;BME280;64162;53.508;10.476;2023-04-03T00:54:23;102908.00;;;-0.72;nan
75585;BME280;64162;53.508;10.476;2023-04-03T00:56:51;102910.50;;;-0.70;nan
75585;BME280;64162;53.508;10.476;2023-04-03T00:59:23;102905.53;;;-0.73;nan
75585;BME280;64162;53.508;10.476;2023-04-03T01:01:54;102907.78;;;-0.69;nan
75585;BME280;64162;53.508;10.476;2023-04-03T01:07:02;102914.22;;;-0.74;nan
75585;BME280;64162;53.508;10.476;2023-04-03T01:09:31;102908.00;;;-0.72;nan
75585;BME280;64162;53.508;10.476;2023-04-03T01:12:25;102917.31;;;-0.69;nan
75585;BME280;64162;53.508;10.476;2023-04-03T01:14:58;102904.91;;;-0.77;nan
75585;BME280;64162;53.508;10.476;2023-04-03T01:25:20;102907.22;;;-0.85;nan
75585;BME280;64162;53.508;10.476;2023-04-03T01:27:47;102904.41;;;-0.82;nan
75585;BME280;64162;53.508;10.476;2023-04-03T01:30:17;102903.50;;;-0.81;nan
75585;BME280;64162;53.508;10.476;2023-04-03T01:32:44;102906.03;;;-0.92;nan
75585;BME280;64162;53.508;10.476;2023-04-03T01:35:12;102909.31;;;-0.90;nan
75585;BME280;64162;53.508;10.476;2023-04-03T01:37:38;102911.84;;;-0.88;nan
75585;BME280;64162;53.508;10.476;2023-04-03T01:40:06;102916.97;;;-0.99;nan
75585;BME280;64162;53.508;10.476;2023-04-03T01:42:34;102913.53;;;-1.00;nan
75585;BME280;64162;53.508;10.476;2023-04-03T01:45:00;102917.78;;;-0.99;nan
75585;BME280;64162;53.508;10.476;2023-04-03T01:47:30;102920.66;;;-0.91;nan
75585;BME280;64162;53.508;10.476;2023-04-03T01:49:57;102913.75;;;-1.03;nan
75585;BME280;64162;53.508;10.476;2023-04-03T01:52:24;102916.13;;;-1.00;nan
75585;BME280;64162;53.508;10.476;2023-04-03T01:54:51;102920.38;;;-0.99;nan
75585;BME280;64162;53.508;10.476;2023-04-03T01:57:17;102923.41;;;-1.05;nan
75585;BME280;64162;53.508;10.476;2023-04-03T01:59:44;102922.38;;;-1.02;nan
75585;BME280;64162;53.508;10.476;2023-04-03T02:02:11;102920.31;;;-1.10;nan
75585;BME280;64162;53.508;10.476;2023-04-03T02:04:38;102921.25;;;-1.11;nan
75585;BME280;64162;53.508;10.476;2023-04-03T02:07:05;102911.75;;;-1.23;nan
75585;BME280;64162;53.508;10.476;2023-04-03T02:09:32;102909.31;;;-1.13;nan
75585;BME280;64162;53.508;10.476;2023-04-03T02:11:58;102912.72;;;-1.24;nan
75585;BME280;64162;53.508;10.476;2023-04-03T02:14:25;102918.59;;;-1.22;nan
75585;BME280;64162;53.508;10.476;2023-04-03T02:16:53;102920.38;;;-1.22;nan
75585;BME280;64162;53.508;10.476;2023-04-03T02:19:21;102926.28;;;-1.20;nan
75585;BME280;64162;53.508;10.476;2023-04-03T02:21:48;102928.44;;;-1.14;nan
75585;BME280;64162;53.508;10.476;2023-04-03T02:24:14;102925.97;;;-1.29;nan
75585;BME280;64162;53.508;10.476;2023-04-03T02:26:41;102929.31;;;-1.27;nan
75585;BME280;64162;53.508;10.476;2023-04-03T02:29:07;102928.56;;;-1.29;nan
75585;BME280;64162;53.508;10.476;2023-04-03T02:31:34;102914.25;;;-1.34;nan
75585;BME280;64162;53.508;10.476;2023-04-03T02:34:01;102922.56;;;-1.29;nan
75585;BME280;64162;53.508;10.476;2023-04-03T02:36:28;102911.25;;;-1.28;nan
75585;BME280;64162;53.508;10.476;2023-04-03T02:38:58;102914.81;;;-1.29;nan
75585;BME280;64162;53.508;10.476;2023-04-03T02:41:24;102919.16;;;-1.30;nan
75585;BME280;64162;53.508;10.476;2023-04-03T02:43:54;102922.88;;;-1.34;nan
75585;BME280;64162;53.508;10.476;2023-04-03T02:46:21;102922.16;;;-1.36;nan
75585;BME280;64162;53.508;10.476;2023-04-03T02:48:47;102924.34;;;-1.30;nan
75585;BME280;64162;53.508;10.476;2023-04-03T02:51:14;102924.78;;;-1.48;nan
75585;BME280;64162;53.508;10.476;2023-04-03T02:53:41;102923.59;;;-1.32;nan
75585;BME280;64162;53.508;10.476;2023-04-03T02:56:13;102923.00;;;-1.35;nan
75585;BME280;64162;53.508;10.476;2023-04-03T02:58:39;102927.69;;;-1.40;nan
75585;BME280;64162;53.508;10.476;2023-04-03T03:01:07;102925.63;;;-1.48;nan
75585;BME280;64162;53.508;10.476;2023-04-03T03:03:34;102923.03;;;-1.48;nan
75585;BME280;64162;53.508;10.476;2023-04-03T03:06:05;102927.19;;;-1.45;nan
75585;BME280;64162;53.508;10.476;2023-04-03T03:08:33;102928.72;;;-1.43;nan
75585;BME280;64162;53.508;10.476;2023-04-03T03:10:59;102928.00;;;-1.57;nan
75585;BME280;64162;53.508;10.476;2023-04-03T03:13:27;102923.25;;;-1.51;nan
75585;BME280;64162;53.508;10.476;2023-04-03T03:15:54;102925.00;;;-1.51;nan
75585;BME280;64162;53.508;10.476;2023-04-03T03:18:21;102920.31;;;-1.46;nan
75585;BME280;64162;53.508;10.476;2023-04-03T03:20:56;102928.84;;;-1.57;nan
75585;BME280;64162;53.508;10.476;2023-04-03T03:23:24;102925.31;;;-1.56;nan
75585;BME280;64162;53.508;10.476;2023-04-03T03:26:00;102926.91;;;-1.66;nan
75585;BME280;64162;53.508;10.476;2023-04-03T03:28:27;102932.91;;;-1.65;nan
75585;BME280;64162;53.508;10.476;2023-04-03T03:30:54;102924.09;;;-1.63;nan
75585;BME280;64162;53.508;10.476;2023-04-03T03:33:21;102927.72;;;-1.65;nan
75585;BME280;64162;53.508;10.476;2023-04-03T03:35:48;102933.00;;;-1.67;nan
75585;BME280;64162;53.508;10.476;2023-04-03T03:38:15;102928.25;;;-1.60;nan
75585;BME280;64162;53.508;10.476;2023-04-03T03:40:41;102925.53;;;-1.59;nan
75585;BME280;64162;53.508;10.476;2023-04-03T03:43:08;102923.38;;;-1.77;nan
75585;BME280;64162;53.508;10.476;2023-04-03T03:45:35;102926.47;;;-1.72;nan
75585;BME280;64162;53.508;10.476;2023-04-03T03:48:02;102925.66;;;-1.73;nan
75585;BME280;64162;53.508;10.476;2023-04-03T03:50:29;102925.56;;;-1.71;nan
75585;BME280;64162;53.508;10.476;2023-04-03T03:52:56;102918.31;;;-1.79;nan
75585;BME280;64162;53.508;10.476;2023-04-03T03:55:23;102927.44;;;-1.73;nan
75585;BME280;64162;53.508;10.476;2023-04-03T03:57:52;102927.44;;;-1.73;nan
75585;BME280;64162;53.508;10.476;2023-04-03T04:00:20;102927.84;;;-1.79;nan
75585;BME280;64162;53.508;10.476;2023-04-03T04:02:52;102931.66;;;-1.72;nan
75585;BME280;64162;53.508;10.476;2023-04-03T04:05:21;102930.94;;;-1.74;nan
75585;BME280;64162;53.508;10.476;2023-04-03T04:07:48;102928.47;;;-1.76;nan
75585;BME280;64162;53.508;10.476;2023-04-03T04:10:15;102931.25;;;-1.79;nan
75585;BME280;64162;53.508;10.476;2023-04-03T04:12:43;102938.09;;;-1.65;nan
75585;BME280;64162;53.508;10.476;2023-04-03T04:15:10;102940.47;;;-1.75;nan
75585;BME280;64162;53.508;10.476;2023-04-03T04:17:37;102933.66;;;-1.76;nan
75585;BME280;64162;53.508;10.476;2023-04-03T04:20:07;102937.50;;;-1.81;nan
75585;BME280;64162;53.508;10.476;2023-04-03T04:22:35;102941.94;;;-1.83;nan
75585;BME280;64162;53.508;10.476;2023-04-03T04:25:02;102944.03;;;-1.76;nan
75585;BME280;64162;53.508;10.476;2023-04-03T04:27:28;102940.78;;;-1.79;nan
75585;BME280;64162;53.508;10.476;2023-04-03T04:29:55;102939.03;;;-1.79;nan
75585;BME280;64162;53.508;10.476;2023-04-03T04:32:23;102941.94;;;-1.83;nan
75585;BME280;64162;53.508;10.476;2023-04-03T04:34:50;102943.59;;;-1.82;nan
75585;BME280;64162;53.508;10.476;2023-04-03T04:37:16;102941.94;;;-1.83;nan
75585;BME280;64162;53.508;10.476;2023-04-03T04:39:43;102948.25;;;-1.75;nan
75585;BME280;64162;53.508;10.476;2023-04-03T04:42:10;102949.59;;;-1.69;nan
75585;BME280;64162;53.508;10.476;2023-04-03T04:44:39;102951.16;;;-1.79;nan
75585;BME280;64162;53.508;10.476;2023-04-03T04:47:07;102953.56;;;-1.76;nan
75585;BME280;64162;53.508;10.476;2023-04-03T04:49:34;102958.63;;;-1.75;nan
75585;BME280;64162;53.508;10.476;2023-04-03T04:52:00;102959.97;;;-1.82;nan
75585;BME280;64162;53.508;10.476;2023-04-03T04:54:30;102966.50;;;-1.89;nan
75585;BME280;64162;53.508;10.476;2023-04-03T04:56:57;102962.03;;;-1.74;nan
75585;BME280;64162;53.508;10.476;2023-04-03T04:59:25;102963.09;;;-1.77;nan
75585;BME280;64162;53.508;10.476;2023-04-03T05:01:54;102969.81;;;-1.74;nan
75585;BME280;64162;53.508;10.476;2023-04-03T05:04:21;102976.88;;;-1.76;nan
75585;BME280;64162;53.508;10.476;2023-04-03T05:06:52;102972.94;;;-1.69;nan
75585;BME280;64162;53.508;10.476;2023-04-03T05:09:23;102978.44;;;-1.74;nan
75585;BME280;64162;53.508;10.476;2023-04-03T05:11:51;102981.03;;;-1.74;nan
75585;BME280;64162;53.508;10.476;2023-04-03T05:14:21;102974.59;;;-1.68;nan
75585;BME280;64162;53.508;10.476;2023-04-03T05:16:47;102986.94;;;-1.72;nan
75585;BME280;64162;53.508;10.476;2023-04-03T05:19:15;102986.72;;;-1.69;nan
75585;BME280;64162;53.508;10.476;2023-04-03T05:21:42;102987.66;;;-1.70;nan
75585;BME280;64162;53.508;10.476;2023-04-03T05:24:12;102982.16;;;-1.53;nan
75585;BME280;64162;53.508;10.476;2023-04-03T05:26:42;102984.53;;;-1.50;nan
75585;BME280;64162;53.508;10.476;2023-04-03T05:29:09;102987.75;;;-1.46;nan
75585;BME280;64162;53.508;10.476;2023-04-03T05:31:36;102994.16;;;-1.39;nan
75585;BME280;64162;53.508;10.476;2023-04-03T05:34:07;102991.47;;;-1.38;nan
75585;BME280;64162;53.508;10.476;2023-04-03T05:36:35;102996.00;;;-1.29;nan
75585;BME280;64162;53.508;10.476;2023-04-03T05:39:05;102999.03;;;-1.22;nan
75585;BME280;64162;53.508;10.476;2023-04-03T05:41:35;103002.53;;;-1.23;nan
75585;BME280;64162;53.508;10.476;2023-04-03T05:44:02;103001.28;;;-1.17;nan
75585;BME280;64162;53.508;10.476;2023-04-03T05:46:28;103006.34;;;-1.16;nan
75585;BME280;64162;53.508;10.476;2023-04-03T05:48:57;103014.97;;;-1.15;nan
75585;BME280;64162;53.508;10.476;2023-04-03T05:51:31;103014.94;;;-1.03;nan
75585;BME280;64162;53.508;10.476;2023-04-03T05:54:13;103014.84;;;-1.01;nan
75585;BME280;64162;53.508;10.476;2023-04-03T05:56:42;103020.53;;;-0.96;nan
75585;BME280;64162;53.508;10.476;2023-04-03T05:59:09;103019.59;;;-0.83;nan
75585;BME280;64162;53.508;10.476;2023-04-03T06:01:36;103014.25;;;-0.81;nan
75585;BME280;64162;53.508;10.476;2023-04-03T06:04:03;103020.88;;;-0.77;nan
75585;BME280;64162;53.508;10.476;2023-04-03T06:06:43;103020.03;;;-0.65;nan
75585;BME280;64162;53.508;10.476;2023-04-03T06:09:11;103023.22;;;-0.62;nan
75585;BME280;64162;53.508;10.476;2023-04-03T06:11:37;103014.16;;;-0.56;nan
75585;BME280;64162;53.508;10.476;2023-04-03T06:14:05;103024.44;;;-0.54;nan
75585;BME280;64162;53.508;10.476;2023-04-03T06:16:33;103024.41;;;-0.42;nan
75585;BME280;64162;53.508;10.476;2023-04-03T06:19:01;103024.66;;;-0.34;nan
75585;BME280;64162;53.508;10.476;2023-04-03T06:21:28;103026.09;;;-0.30;nan
75585;BME280;64162;53.508;10.476;2023-04-03T06:23:54;103019.22;;;-0.31;nan
75585;BME280;64162;53.508;10.476;2023-04-03T06:26:21;103026.63;;;-0.14;nan
75585;BME280;64162;53.508;10.476;2023-04-03T06:28:48;103020.28;;;0.02;nan
75585;BME280;64162;53.508;10.476;2023-04-03T06:31:15;103018.31;;;0.05;nan
75585;BME280;64162;53.508;10.476;2023-04-03T06:33:41;103021.97;;;0.14;nan
75585;BME280;64162;53.508;10.476;2023-04-03T06:36:10;103030.94;;;0.10;nan
75585;BME280;64162;53.508;10.476;2023-04-03T06:38:37;103032.88;;;0.30;nan
75585;BME280;64162;53.508;10.476;2023-04-03T06:41:04;103032.28;;;0.37;nan
75585;BME280;64162;53.508;10.476;2023-04-03T06:43:31;103037.53;;;0.48;nan
75585;BME280;64162;53.508;10.476;2023-04-03T06:45:59;103030.66;;;0.58;nan
75585;BME280;64162;53.508;10.476;2023-04-03T06:48:26;103035.16;;;0.79;nan
75585;BME280;64162;53.508;10.476;2023-04-03T06:50:53;103040.47;;;0.88;nan
75585;BME280;64162;53.508;10.476;2023-04-03T06:53:19;103046.38;;;1.12;nan
75585;BME280;64162;53.508;10.476;2023-04-03T06:55:46;103041.38;;;1.20;nan
75585;BME280;64162;53.508;10.476;2023-04-03T06:58:13;103048.13;;;1.34;nan
75585;BME280;64162;53.508;10.476;2023-04-03T07:00:41;103058.63;;;1.44;nan
75585;BME280;64162;53.508;10.476;2023-04-03T07:03:08;103050.03;;;1.64;nan
75585;BME280;64162;53.508;10.476;2023-04-03T07:05:34;103051.91;;;1.73;nan
75585;BME280;64162;53.508;10.476;2023-04-03T07:08:01;103051.22;;;1.92;nan
75585;BME280;64162;53.508;10.476;2023-04-03T07:10:27;103055.13;;;2.18;nan
75585;BME280;64162;53.508;10.476;2023-04-03T07:12:54;103056.00;;;2.28;nan
75585;BME280;64162;53.508;10.476;2023-04-03T07:15:21;103052.81;;;2.45;nan
75585;BME280;64162;53.508;10.476;2023-04-03T07:17:48;103052.34;;;2.61;nan
75585;BME280;64162;53.508;10.476;2023-04-03T07:20:14;103050.72;;;2.69;nan
75585;BME280;64162;53.508;10.476;2023-04-03T07:22:41;103056.59;;;2.92;nan
75585;BME280;64162;53.508;10.476;2023-04-03T07:25:08;103051.84;;;3.06;nan
75585;BME280;64162;53.508;10.476;2023-04-03T07:27:35;103060.56;;;3.26;nan
75585;BME280;64162;53.508;10.476;2023-04-03T07:30:01;103056.06;;;3.47;nan
75585;BME280;64162;53.508;10.476;2023-04-03T07:32:28;103059.25;;;3.51;nan
75585;BME280;64162;53.508;10.476;2023-04-03T07:34:55;103055.66;;;3.61;nan
75585;BME280;64162;53.508;10.476;2023-04-03T07:37:21;103061.56;;;3.54;nan
75585;BME280;64162;53.508;10.476;2023-04-03T07:39:48;103064.06;;;3.94;nan
75585;BME280;64162;53.508;10.476;2023-04-03T07:42:15;103064.34;;;3.81;nan
75585;BME280;64162;53.508;10.476;2023-04-03T07:44:41;103061.84;;;3.99;nan
75585;BME280;64162;53.508;10.476;2023-04-03T07:47:09;103061.31;;;4.05;nan
75585;BME280;64162;53.508;10.476;2023-04-03T07:49:36;103065.78;;;4.31;nan
75585;BME280;64162;53.508;10.476;2023-04-03T07:52:06;103063.34;;;4.20;nan
75585;BME280;64162;53.508;10.476;2023-04-03T07:54:35;103067.34;;;4.24;nan
75585;BME280;64162;53.508;10.476;2023-04-03T07:57:02;103060.78;;;4.57;nan
75585;BME280;64162;53.508;10.476;2023-04-03T07:59:29;103061.06;;;4.91;nan
75585;BME280;64162;53.508;10.476;2023-04-03T08:01:55;103060.94;;;4.92;nan
75585;BME280;64162;53.508;10.476;2023-04-03T08:04:22;103053.84;;;5.02;nan
75585;BME280;64162;53.508;10.476;2023-04-03T08:06:49;103067.16;;;5.19;nan
75585;BME280;64162;53.508;10.476;2023-04-03T08:09:15;103064.03;;;5.33;nan
75585;BME280;64162;53.508;10.476;2023-04-03T08:11:43;103058.78;;;5.50;nan
75585;BME280;64162;53.508;10.476;2023-04-03T08:14:10;103059.53;;;5.78;nan
75585;BME280;64162;53.508;10.476;2023-04-03T08:16:43;103067.41;;;5.78;nan
75585;BME280;64162;53.508;10.476;2023-04-03T08:19:10;103058.09;;;5.93;nan
75585;BME280;64162;53.508;10.476;2023-04-03T08:21:41;103070.00;;;6.05;nan
75585;BME280;64162;53.508;10.476;2023-04-03T08:24:08;103061.13;;;6.24;nan
75585;BME280;64162;53.508;10.476;2023-04-03T08:26:35;103066.44;;;6.14;nan
75585;BME280;64162;53.508;10.476;2023-04-03T08:29:02;103062.91;;;6.49;nan
75585;BME280;64162;53.508;10.476;2023-04-03T08:31:29;103057.31;;;6.44;nan
75585;BME280;64162;53.508;10.476;2023-04-03T08:33:56;103056.47;;;6.44;nan
75585;BME280;64162;53.508;10.476;2023-04-03T08:36:26;103057.19;;;6.54;nan
75585;BME280;64162;53.508;10.476;2023-04-03T08:38:54;103058.53;;;6.58;nan
75585;BME280;64162;53.508;10.476;2023-04-03T08:41:33;103060.09;;;6.76;nan
75585;BME280;64162;53.508;10.476;2023-04-03T08:47:23;103058.47;;;7.17;nan
75585;BME280;64162;53.508;10.476;2023-04-03T08:49:54;103053.31;;;7.00;nan
75585;BME280;64162;53.508;10.476;2023-04-03T08:52:38;103050.47;;;7.35;nan
75585;BME280;64162;53.508;10.476;2023-04-03T08:55:38;103054.41;;;7.39;nan
75585;BME280;64162;53.508;10.476;2023-04-03T08:58:12;103048.41;;;7.79;nan
75585;BME280;64162;53.508;10.476;2023-04-03T09:01:33;103053.16;;;7.83;nan
75585;BME280;64162;53.508;10.476;2023-04-03T09:03:38;103054.97;;;7.75;nan
75585;BME280;64162;53.508;10.476;2023-04-03T09:06:16;103053.47;;;8.45;nan
75585;BME280;64162;53.508;10.476;2023-04-03T09:09:11;103058.00;;;9.14;nan
75585;BME280;64162;53.508;10.476;2023-04-03T09:12:03;103048.84;;;10.00;nan
75585;BME280;64162;53.508;10.476;2023-04-03T09:19:59;103037.91;;;11.20;nan
75585;BME280;64162;53.508;10.476;2023-04-03T09:22:32;103042.03;;;12.08;nan
75585;BME280;64162;53.508;10.476;2023-04-03T09:27:32;103044.31;;;12.38;nan
75585;BME280;64162;53.508;10.476;2023-04-03T09:29:58;103044.41;;;13.79;nan
75585;BME280;64162;53.508;10.476;2023-04-03T09:32:27;103042.97;;;13.57;nan
75585;BME280;64162;53.508;10.476;2023-04-03T09:34:57;103042.78;;;13.78;nan
75585;BME280;64162;53.508;10.476;2023-04-03T09:37:38;103044.41;;;14.05;nan
75585;BME280;64162;53.508;10.476;2023-04-03T09:42:58;103038.31;;;15.33;nan
75585;BME280;64162;53.508;10.476;2023-04-03T09:45:32;103045.22;;;14.12;nan
75585;BME280;64162;53.508;10.476;2023-04-03T09:48:16;103033.53;;;15.41;nan
75585;BME280;64162;53.508;10.476;2023-04-03T09:53:35;103029.09;;;16.89;nan
75585;BME280;64162;53.508;10.476;2023-04-03T09:58:45;103014.50;;;16.55;nan
75585;BME280;64162;53.508;10.476;2023-04-03T10:01:31;103025.94;;;17.10;nan
75585;BME280;64162;53.508;10.476;2023-04-03T10:04:10;103024.19;;;18.21;nan
75585;BME280;64162;53.508;10.476;2023-04-03T10:06:45;103027.81;;;18.27;nan
75585;BME280;64162;53.508;10.476;2023-04-03T10:09:32;103009.47;;;17.13;nan
75585;BME280;64162;53.508;10.476;2023-04-03T10:14:36;103008.91;;;20.24;nan
75585;BME280;64162;53.508;10.476;2023-04-03T10:19:40;103011.16;;;19.61;nan
75585;BME280;64162;53.508;10.476;2023-04-03T10:22:20;103013.56;;;22.31;nan
75585;BME280;64162;53.508;10.476;2023-04-03T10:25:22;103010.50;;;20.64;nan
75585;BME280;64162;53.508;10.476;2023-04-03T10:31:02;103000.94;;;19.29;nan
75585;BME280;64162;53.508;10.476;2023-04-03T10:41:56;102990.22;;;19.96;nan
75585;BME280;64162;53.508;10.476;2023-04-03T10:50:55;102988.78;;;19.88;nan
75585;BME280;64162;53.508;10.476;2023-04-03T10:56:30;102984.06;;;19.79;nan
75585;BME280;64162;53.508;10.476;2023-04-03T11:01:42;102985.53;;;18.17;nan
75585;BME280;64162;53.508;10.476;2023-04-03T11:04:11;102975.19;;;18.21;nan
75585;BME280;64162;53.508;10.476;2023-04-03T11:09:19;102967.59;;;15.62;nan
75585;BME280;64162;53.508;10.476;2023-04-03T11:11:49;102966.53;;;16.30;nan
75585;BME280;64162;53.508;10.476;2023-04-03T11:14:26;102963.25;;;19.69;nan
75585;BME280;64162;53.508;10.476;2023-04-03T11:17:15;102959.03;;;21.30;nan
75585;BME280;64162;53.508;10.476;2023-04-03T11:22:39;102947.13;;;16.41;nan
75585;BME280;64162;53.508;10.476;2023-04-03T11:27:42;102950.72;;;19.92;nan
75585;BME280;64162;53.508;10.476;2023-04-03T11:30:19;102941.91;;;20.56;nan
75585;BME280;64162;53.508;10.476;2023-04-03T11:35:32;102942.88;;;18.62;nan
75585;BME280;64162;53.508;10.476;2023-04-03T11:38:00;102934.78;;;17.18;nan
75585;BME280;64162;53.508;10.476;2023-04-03T11:40:32;102945.63;;;14.72;nan
75585;BME280;64162;53.508;10.476;2023-04-03T11:45:34;102936.25;;;16.72;nan
75585;BME280;64162;53.508;10.476;2023-04-03T11:50:54;102933.88;;;22.40;nan
75585;BME280;64162;53.508;10.476;2023-04-03T11:53:35;102940.53;;;22.22;nan
75585;BME280;64162;53.508;10.476;2023-04-03T12:01:54;102927.72;;;25.61;nan
75585;BME280;64162;53.508;10.476;2023-04-03T12:04:23;102924.00;;;26.66;nan
75585;BME280;64162;53.508;10.476;2023-04-03T12:07:26;102918.75;;;24.21;nan
75585;BME280;64162;53.508;10.476;2023-04-03T12:12:35;102917.91;;;27.84;nan
75585;BME280;64162;53.508;10.476;2023-04-03T12:15:21;102924.78;;;29.02;nan
75585;BME280;64162;53.508;10.476;2023-04-03T12:17:48;102923.53;;;26.58;nan
75585;BME280;64162;53.508;10.476;2023-04-03T12:20:54;102921.53;;;29.84;nan
75585;BME280;64162;53.508;10.476;2023-04-03T12:23:32;102920.09;;;27.96;nan
75585;BME280;64162;53.508;10.476;2023-04-03T12:40:14;102902.44;;;26.74;nan
75585;BME280;64162;53.508;10.476;2023-04-03T12:46:01;102902.44;;;22.66;nan
75585;BME280;64162;53.508;10.476;2023-04-03T12:48:31;102894.59;;;23.65;nan
75585;BME280;64162;53.508;10.476;2023-04-03T12:50:59;102888.69;;;24.71;nan
75585;BME280;64162;53.508;10.476;2023-04-03T12:53:33;102895.53;;;25.02;nan
75585;BME280;64162;53.508;10.476;2023-04-03T12:56:20;102902.94;;;26.20;nan
75585;BME280;64162;53.508;10.476;2023-04-03T12:58:49;102889.31;;;25.83;nan
75585;BME280;64162;53.508;10.476;2023-04-03T13:01:19;102896.84;;;27.03;nan
75585;BME280;64162;53.508;10.476;2023-04-03T13:03:50;102894.50;;;26.96;nan
75585;BME280;64162;53.508;10.476;2023-04-03T13:06:32;102899.97;;;26.22;nan
75585;BME280;64162;53.508;10.476;2023-04-03T13:09:01;102903.09;;;25.34;nan
75585;BME280;64162;53.508;10.476;2023-04-03T13:11:33;102883.81;;;24.29;nan
75585;BME280;64162;53.508;10.476;2023-04-03T13:14:05;102887.81;;;20.47;nan
75585;BME280;64162;53.508;10.476;2023-04-03T13:16:32;102881.69;;;16.02;nan
75585;BME280;64162;53.508;10.476;2023-04-03T13:18:59;102878.72;;;15.74;nan
75585;BME280;64162;53.508;10.476;2023-04-03T13:21:28;102886.06;;;22.00;nan
75585;BME280;64162;53.508;10.476;2023-04-03T13:24:01;102879.00;;;19.32;nan
75585;BME280;64162;53.508;10.476;2023-04-03T13:26:32;102888.59;;;19.45;nan
75585;BME280;64162;53.508;10.476;2023-04-03T13:29:03;102881.38;;;18.27;nan
75585;BME280;64162;53.508;10.476;2023-04-03T13:31:33;102884.94;;;15.86;nan
75585;BME280;64162;53.508;10.476;2023-04-03T13:34:20;102883.31;;;19.88;nan
75585;BME280;64162;53.508;10.476;2023-04-03T13:41:52;102872.41;;;23.78;nan
75585;BME280;64162;53.508;10.476;2023-04-03T13:46:49;102875.34;;;21.63;nan
75585;BME280;64162;53.508;10.476;2023-04-03T13:49:41;102874.97;;;23.04;nan
75585;BME280;64162;53.508;10.476;2023-04-03T13:52:48;102869.59;;;27.81;nan
75585;BME280;64162;53.508;10.476;2023-04-03T13:55:27;102872.47;;;27.98;nan
75585;BME280;64162;53.508;10.476;2023-04-03T13:58:22;102865.94;;;22.33;nan
75585;BME280;64162;53.508;10.476;2023-04-03T14:03:41;102863.63;;;23.42;nan
75585;BME280;64162;53.508;10.476;2023-04-03T14:06:10;102871.34;;;27.17;nan
75585;BME280;64162;53.508;10.476;2023-04-03T14:08:37;102872.78;;;26.27;nan
75585;BME280;64162;53.508;10.476;2023-04-03T14:11:14;102857.47;;;26.36;nan
75585;BME280;64162;53.508;10.476;2023-04-03T14:13:43;102863.91;;;24.98;nan
75585;BME280;64162;53.508;10.476;2023-04-03T14:16:19;102872.59;;;29.31;nan
75585;BME280;64162;53.508;10.476;2023-04-03T14:18:47;102863.50;;;27.16;nan
75585;BME280;64162;53.508;10.476;2023-04-03T14:21:16;102878.16;;;28.60;nan
75585;BME280;64162;53.508;10.476;2023-04-03T14:23:43;102879.75;;;30.14;nan
75585;BME280;64162;53.508;10.476;2023-04-03T14:26:17;102895.78;;;28.98;nan
75585;BME280;64162;53.508;10.476;2023-04-03T14:28:45;102893.91;;;29.38;nan
75585;BME280;64162;53.508;10.476;2023-04-03T14:31:12;102901.59;;;27.84;nan
75585;BME280;64162;53.508;10.476;2023-04-03T14:33:39;102893.72;;;28.59;nan
75585;BME280;64162;53.508;10.476;2023-04-03T14:38:39;102874.94;;;29.55;nan
75585;BME280;64162;53.508;10.476;2023-04-03T14:41:05;102869.03;;;30.52;nan
75585;BME280;64162;53.508;10.476;2023-04-03T14:43:39;102853.63;;;30.48;nan
75585;BME280;64162;53.508;10.476;2023-04-03T14:46:13;102851.69;;;29.18;nan
75585;BME280;64162;53.508;10.476;2023-04-03T14:48:39;102857.16;;;31.87;nan
75585;BME280;64162;53.508;10.476;2023-04-03T14:51:10;102854.41;;;33.15;nan
75585;BME280;64162;53.508;10.476;2023-04-03T14:53:37;102853.75;;;21.11;nan
75585;BME280;64162;53.508;10.476;2023-04-03T14:58:43;102844.84;;;28.54;nan
75585;BME280;64162;53.508;10.476;2023-04-03T15:01:12;102841.31;;;26.63;nan
75585;BME280;64162;53.508;10.476;2023-04-03T15:03:40;102839.16;;;28.06;nan
75585;BME280;64162;53.508;10.476;2023-04-03T15:06:09;102846.44;;;26.65;nan
75585;BME280;64162;53.508;10.476;2023-04-03T15:08:37;102843.22;;;29.76;nan
75585;BME280;64162;53.508;10.476;2023-04-03T15:11:04;102835.28;;;29.40;nan
75585;BME280;64162;53.508;10.476;2023-04-03T15:13:31;102842.97;;;25.61;nan
75585;BME280;64162;53.508;10.476;2023-04-03T15:15:58;102843.81;;;30.38;nan